LSE - La Crosse Rgnl

Pirep is a free, collaborative database of all public and private airports located within the United States. All pilots are welcome to contribute, edit, and improve any airport they have local knowledge about, no registration required.
Uploaded photos will be licensed under a CC BY-SA 4.0 license. Please only upload photos you have the rights to use.
Tags
Public
Events
METAR / TAF
Car Rental
Edit Tags
Food
Camping
Lodging
Bicycles
Swimming
Golfing
Fishing
Hot Springs
Museum
Flying Clubs
Airpark
Upcoming Events
*
*
*

Where exactly on/near the airport is this event taking place?

Is there a webpage with more information for this event?

Who should be contacted for more information?

What is this event all about?

Repeat every
Description
Last updated: 2024-01-14 23:00:01 CST
Transient Parking
Last updated: 2024-01-08 22:59:54 CST
Fuel Location
Landing & Tie-down Fees
Crew Car Availability
Last updated: 2024-01-08 22:59:54 CST
Flying Clubs
WiFi Access
Airport Statistics
Location: La Crosse, WI
Elevation: 655ft
Sectional: Chicago
Activation date: Feb 1938
Fuel: 100LL, A (prices)
Runway 18/36: 8,742ft
Runway 13/31: 6,050ft
Runway 04/22: 5,199ft
Access: Open to the public
Current Weather — VFR
  • Weather data is strictly informational and not for flight planning purposes.
  • METAR
    2024-04-22 06:53:00 CDT
    Ceiling Wind Temperature Dewpoint Weather Visbility
    Sky clear 170° @ 8kt 39°F 30°F N/A 10SM
    Raw: KLSE 221153Z 17008KT 10SM CLR 04/M01 A3000 RMK AO2 SLP161 T00391006 10044 20017 56010
  • TAF
    2024-04-22 07:00:00 CDT – 2024-04-22 10:00:00 CDT
    Ceiling Wind Weather Visbility
    Sky clear 160° @ 6kt N/A 6SM
    Clouds: Few @ 25,000ft
    Raw: KLSE 221135Z 2212/2312 16006KT P6SM FEW250 FM221500 20011G20KT P6SM SCT250 FM221900 20018G27KT P6SM BKN200 FM230300 21012G20KT P6SM BKN100 FM230600 23008KT P6SM SCT250
  • TAF
    2024-04-22 10:00:00 CDT – 2024-04-22 14:00:00 CDT
    Ceiling Wind Weather Visbility
    Sky clear 200° @ 11kt, gusts 20kt N/A 6SM
    Clouds: Scattered @ 25,000ft
    Raw: KLSE 221135Z 2212/2312 16006KT P6SM FEW250 FM221500 20011G20KT P6SM SCT250 FM221900 20018G27KT P6SM BKN200 FM230300 21012G20KT P6SM BKN100 FM230600 23008KT P6SM SCT250
  • TAF
    2024-04-22 14:00:00 CDT – 2024-04-22 22:00:00 CDT
    Ceiling Wind Weather Visbility
    20,000ft 200° @ 18kt, gusts 27kt N/A 6SM
    Clouds: Broken @ 20,000ft
    Raw: KLSE 221135Z 2212/2312 16006KT P6SM FEW250 FM221500 20011G20KT P6SM SCT250 FM221900 20018G27KT P6SM BKN200 FM230300 21012G20KT P6SM BKN100 FM230600 23008KT P6SM SCT250
  • TAF
    2024-04-22 22:00:00 CDT – 2024-04-23 01:00:00 CDT
    Ceiling Wind Weather Visbility
    10,000ft 210° @ 12kt, gusts 20kt N/A 6SM
    Clouds: Broken @ 10,000ft
    Raw: KLSE 221135Z 2212/2312 16006KT P6SM FEW250 FM221500 20011G20KT P6SM SCT250 FM221900 20018G27KT P6SM BKN200 FM230300 21012G20KT P6SM BKN100 FM230600 23008KT P6SM SCT250
  • TAF
    2024-04-23 01:00:00 CDT – 2024-04-23 07:00:00 CDT
    Ceiling Wind Weather Visbility
    Sky clear 230° @ 8kt N/A 6SM
    Clouds: Scattered @ 25,000ft
    Raw: KLSE 221135Z 2212/2312 16006KT P6SM FEW250 FM221500 20011G20KT P6SM SCT250 FM221900 20018G27KT P6SM BKN200 FM230300 21012G20KT P6SM BKN100 FM230600 23008KT P6SM SCT250
Click/tap to add an annotation marker to the map
Airport Webcams
No webcams added yet.
Direct links to live image URLs will be displayed inline on this page. URLs to separate webpages will be linked to.
URL:
Direct links to live image URLs will be displayed inline on this page. URLs to separate webpages will be linked to.
URL:
Remarks
  • Tower, 1390 ft agl 6nm sw.
  • Numerous towers up to 836 ft agl; 4nm se.
  • Deer; waterfowl & other birds on & invof arpt. hvy concentrations of waterfowl spring & fall.
  • Hldg psn for the west side of rwy 36 apch end is set back on twy c. see hs-1 on arpt diagram.
  • Cold temperature airport. altitude correction required at or below -22c.
Comments
Leave a comment What was your experience like at this airport?